sensor_id;sensor_type;location;lat;lon;timestamp;temperature;humidity
2729;DHT22;1372;47.956;7.830;2022-11-15T00:01:55;10.70;99.90
2729;DHT22;1372;47.956;7.830;2022-11-15T00:04:25;10.70;99.90
2729;DHT22;1372;47.956;7.830;2022-11-15T00:06:54;10.70;99.90
2729;DHT22;1372;47.956;7.830;2022-11-15T00:09:24;10.70;99.90
2729;DHT22;1372;47.956;7.830;2022-11-15T00:11:54;10.70;99.90
2729;DHT22;1372;47.956;7.830;2022-11-15T00:14:28;10.80;99.90
2729;DHT22;1372;47.956;7.830;2022-11-15T00:17:00;10.90;99.90
2729;DHT22;1372;47.956;7.830;2022-11-15T00:19:32;11.00;99.90
2729;DHT22;1372;47.956;7.830;2022-11-15T00:22:02;11.00;99.90
2729;DHT22;1372;47.956;7.830;2022-11-15T00:24:33;11.00;99.90
2729;DHT22;1372;47.956;7.830;2022-11-15T00:27:03;10.90;99.90
2729;DHT22;1372;47.956;7.830;2022-11-15T00:29:36;10.90;99.90
2729;DHT22;1372;47.956;7.830;2022-11-15T00:32:06;10.90;99.90
2729;DHT22;1372;47.956;7.830;2022-11-15T00:34:36;10.90;99.90
2729;DHT22;1372;47.956;7.830;2022-11-15T00:37:06;10.90;99.90
2729;DHT22;1372;47.956;7.830;2022-11-15T00:39:36;10.90;99.90
2729;DHT22;1372;47.956;7.830;2022-11-15T00:42:06;11.00;99.90
2729;DHT22;1372;47.956;7.830;2022-11-15T00:44:38;10.90;99.90
2729;DHT22;1372;47.956;7.830;2022-11-15T00:47:07;11.00;99.90
2729;DHT22;1372;47.956;7.830;2022-11-15T00:49:37;10.90;99.90
2729;DHT22;1372;47.956;7.830;2022-11-15T00:52:07;10.90;99.90
2729;DHT22;1372;47.956;7.830;2022-11-15T00:54:37;10.90;99.90
2729;DHT22;1372;47.956;7.830;2022-11-15T00:57:07;11.10;99.90
2729;DHT22;1372;47.956;7.830;2022-11-15T00:59:38;11.30;99.90
2729;DHT22;1372;47.956;7.830;2022-11-15T01:02:09;11.60;99.90
2729;DHT22;1372;47.956;7.830;2022-11-15T01:04:39;11.90;99.90
2729;DHT22;1372;47.956;7.830;2022-11-15T01:07:09;12.20;99.90
2729;DHT22;1372;47.956;7.830;2022-11-15T01:09:39;12.40;99.90
2729;DHT22;1372;47.956;7.830;2022-11-15T01:12:08;12.50;99.90
2729;DHT22;1372;47.956;7.830;2022-11-15T01:14:40;12.60;99.90
2729;DHT22;1372;47.956;7.830;2022-11-15T01:17:10;12.70;99.90
2729;DHT22;1372;47.956;7.830;2022-11-15T01:19:39;12.70;99.90
2729;DHT22;1372;47.956;7.830;2022-11-15T01:22:09;12.70;99.90
2729;DHT22;1372;47.956;7.830;2022-11-15T01:24:40;12.80;99.90
2729;DHT22;1372;47.956;7.830;2022-11-15T01:27:10;12.90;99.90
2729;DHT22;1372;47.956;7.830;2022-11-15T01:29:42;12.90;99.90
2729;DHT22;1372;47.956;7.830;2022-11-15T01:32:11;12.90;99.90
2729;DHT22;1372;47.956;7.830;2022-11-15T01:34:42;12.90;99.90
2729;DHT22;1372;47.956;7.830;2022-11-15T01:37:12;12.90;99.90
2729;DHT22;1372;47.956;7.830;2022-11-15T01:39:42;13.00;99.90
2729;DHT22;1372;47.956;7.830;2022-11-15T01:42:13;13.10;99.90
2729;DHT22;1372;47.956;7.830;2022-11-15T01:44:47;13.00;99.90
2729;DHT22;1372;47.956;7.830;2022-11-15T01:47:21;13.00;99.90
2729;DHT22;1372;47.956;7.830;2022-11-15T01:49:56;13.00;99.90
2729;DHT22;1372;47.956;7.830;2022-11-15T01:52:33;13.00;99.90
2729;DHT22;1372;47.956;7.830;2022-11-15T01:55:07;13.00;99.90
2729;DHT22;1372;47.956;7.830;2022-11-15T01:57:42;13.00;99.90
2729;DHT22;1372;47.956;7.830;2022-11-15T02:00:17;12.90;99.90
2729;DHT22;1372;47.956;7.830;2022-11-15T02:02:47;12.90;99.90
2729;DHT22;1372;47.956;7.830;2022-11-15T02:05:17;12.90;99.90
2729;DHT22;1372;47.956;7.830;2022-11-15T02:07:48;12.80;99.90
2729;DHT22;1372;47.956;7.830;2022-11-15T02:10:21;12.80;99.90
2729;DHT22;1372;47.956;7.830;2022-11-15T02:12:52;12.80;99.90
2729;DHT22;1372;47.956;7.830;2022-11-15T02:15:36;12.80;99.90
2729;DHT22;1372;47.956;7.830;2022-11-15T02:18:15;12.90;99.90
2729;DHT22;1372;47.956;7.830;2022-11-15T02:20:58;12.90;99.90
2729;DHT22;1372;47.956;7.830;2022-11-15T02:30:51;13.20;99.90
2729;DHT22;1372;47.956;7.830;2022-11-15T02:33:33;13.30;99.90
2729;DHT22;1372;47.956;7.830;2022-11-15T02:36:09;13.30;99.90
2729;DHT22;1372;47.956;7.830;2022-11-15T02:38:47;13.20;99.90
2729;DHT22;1372;47.956;7.830;2022-11-15T02:41:26;13.40;99.90
2729;DHT22;1372;47.956;7.830;2022-11-15T02:44:03;13.40;99.90
2729;DHT22;1372;47.956;7.830;2022-11-15T02:46:40;13.30;99.90
2729;DHT22;1372;47.956;7.830;2022-11-15T02:49:29;13.20;99.90
2729;DHT22;1372;47.956;7.830;2022-11-15T02:52:01;13.20;99.90
2729;DHT22;1372;47.956;7.830;2022-11-15T02:54:33;13.10;99.90
2729;DHT22;1372;47.956;7.830;2022-11-15T02:57:05;13.10;99.90
2729;DHT22;1372;47.956;7.830;2022-11-15T03:00:03;13.10;99.90
2729;DHT22;1372;47.956;7.830;2022-11-15T03:02:52;13.10;99.90
2729;DHT22;1372;47.956;7.830;2022-11-15T03:05:35;13.00;99.90
2729;DHT22;1372;47.956;7.830;2022-11-15T03:08:13;13.00;99.90
2729;DHT22;1372;47.956;7.830;2022-11-15T03:10:58;13.00;99.90
2729;DHT22;1372;47.956;7.830;2022-11-15T03:13:36;13.00;99.90
2729;DHT22;1372;47.956;7.830;2022-11-15T03:16:16;13.00;99.90
2729;DHT22;1372;47.956;7.830;2022-11-15T03:18:54;12.90;99.90
2729;DHT22;1372;47.956;7.830;2022-11-15T03:21:28;13.00;99.90
2729;DHT22;1372;47.956;7.830;2022-11-15T03:24:03;13.00;99.90
2729;DHT22;1372;47.956;7.830;2022-11-15T03:26:38;12.90;99.90
2729;DHT22;1372;47.956;7.830;2022-11-15T03:29:13;12.90;99.90
2729;DHT22;1372;47.956;7.830;2022-11-15T03:31:47;12.80;99.90
2729;DHT22;1372;47.956;7.830;2022-11-15T03:34:26;12.90;99.90
2729;DHT22;1372;47.956;7.830;2022-11-15T03:37:01;13.00;99.90
2729;DHT22;1372;47.956;7.830;2022-11-15T03:39:31;13.00;99.90
2729;DHT22;1372;47.956;7.830;2022-11-15T03:42:11;13.10;99.90
2729;DHT22;1372;47.956;7.830;2022-11-15T03:44:52;13.10;99.90
2729;DHT22;1372;47.956;7.830;2022-11-15T03:47:28;13.00;99.90
2729;DHT22;1372;47.956;7.830;2022-11-15T03:50:07;13.00;99.90
2729;DHT22;1372;47.956;7.830;2022-11-15T03:52:40;13.00;99.90
2729;DHT22;1372;47.956;7.830;2022-11-15T03:55:14;13.00;99.90
2729;DHT22;1372;47.956;7.830;2022-11-15T03:58:05;13.00;99.90
2729;DHT22;1372;47.956;7.830;2022-11-15T04:00:38;13.00;99.90
2729;DHT22;1372;47.956;7.830;2022-11-15T04:03:08;13.00;99.90
2729;DHT22;1372;47.956;7.830;2022-11-15T04:05:39;12.90;99.90
2729;DHT22;1372;47.956;7.830;2022-11-15T04:08:12;12.90;99.90
2729;DHT22;1372;47.956;7.830;2022-11-15T04:10:41;12.90;99.90
2729;DHT22;1372;47.956;7.830;2022-11-15T04:13:11;12.90;99.90
2729;DHT22;1372;47.956;7.830;2022-11-15T04:15:43;12.70;99.90
2729;DHT22;1372;47.956;7.830;2022-11-15T04:18:13;12.60;99.90
2729;DHT22;1372;47.956;7.830;2022-11-15T04:20:44;12.50;99.90
2729;DHT22;1372;47.956;7.830;2022-11-15T04:23:31;12.40;99.90
2729;DHT22;1372;47.956;7.830;2022-11-15T04:26:30;12.30;99.90
2729;DHT22;1372;47.956;7.830;2022-11-15T04:29:00;12.20;99.90
2729;DHT22;1372;47.956;7.830;2022-11-15T04:31:48;12.10;99.90
2729;DHT22;1372;47.956;7.830;2022-11-15T04:34:21;12.10;99.90
2729;DHT22;1372;47.956;7.830;2022-11-15T04:36:56;11.90;99.90
2729;DHT22;1372;47.956;7.830;2022-11-15T04:39:43;11.80;99.90
2729;DHT22;1372;47.956;7.830;2022-11-15T04:42:15;11.80;99.90
2729;DHT22;1372;47.956;7.830;2022-11-15T04:44:48;11.70;99.90
2729;DHT22;1372;47.956;7.830;2022-11-15T04:47:24;11.70;99.90
2729;DHT22;1372;47.956;7.830;2022-11-15T04:49:56;11.60;99.90
2729;DHT22;1372;47.956;7.830;2022-11-15T04:52:28;11.50;99.90
2729;DHT22;1372;47.956;7.830;2022-11-15T04:54:58;11.50;99.90
2729;DHT22;1372;47.956;7.830;2022-11-15T04:57:33;11.40;99.90
2729;DHT22;1372;47.956;7.830;2022-11-15T05:00:04;11.40;99.90
2729;DHT22;1372;47.956;7.830;2022-11-15T05:02:37;11.40;99.90
2729;DHT22;1372;47.956;7.830;2022-11-15T05:05:24;11.40;99.90
2729;DHT22;1372;47.956;7.830;2022-11-15T05:07:54;11.40;99.90
2729;DHT22;1372;47.956;7.830;2022-11-15T05:10:27;11.40;99.90
2729;DHT22;1372;47.956;7.830;2022-11-15T05:12:56;11.40;99.90
2729;DHT22;1372;47.956;7.830;2022-11-15T05:15:25;11.50;99.90
2729;DHT22;1372;47.956;7.830;2022-11-15T05:17:57;11.50;99.90
2729;DHT22;1372;47.956;7.830;2022-11-15T05:20:28;11.50;99.90
2729;DHT22;1372;47.956;7.830;2022-11-15T05:23:02;11.50;99.90
2729;DHT22;1372;47.956;7.830;2022-11-15T05:25:33;11.40;99.90
2729;DHT22;1372;47.956;7.830;2022-11-15T05:28:07;11.40;99.90
2729;DHT22;1372;47.956;7.830;2022-11-15T05:30:41;11.40;99.90
2729;DHT22;1372;47.956;7.830;2022-11-15T05:33:15;11.40;99.90
2729;DHT22;1372;47.956;7.830;2022-11-15T05:35:50;11.40;99.90
2729;DHT22;1372;47.956;7.830;2022-11-15T05:38:29;11.30;99.90
2729;DHT22;1372;47.956;7.830;2022-11-15T05:41:04;11.30;99.90
2729;DHT22;1372;47.956;7.830;2022-11-15T05:43:38;11.20;99.90
2729;DHT22;1372;47.956;7.830;2022-11-15T05:46:10;11.10;99.90
2729;DHT22;1372;47.956;7.830;2022-11-15T05:48:48;11.00;99.90
2729;DHT22;1372;47.956;7.830;2022-11-15T05:51:22;11.00;99.90
2729;DHT22;1372;47.956;7.830;2022-11-15T05:53:57;10.90;99.90
2729;DHT22;1372;47.956;7.830;2022-11-15T05:56:30;10.90;99.90
2729;DHT22;1372;47.956;7.830;2022-11-15T05:59:05;10.70;99.90
2729;DHT22;1372;47.956;7.830;2022-11-15T06:01:38;10.70;99.90
2729;DHT22;1372;47.956;7.830;2022-11-15T06:04:12;10.60;99.90
2729;DHT22;1372;47.956;7.830;2022-11-15T06:06:45;10.60;99.90
2729;DHT22;1372;47.956;7.830;2022-11-15T06:09:19;10.60;99.90
2729;DHT22;1372;47.956;7.830;2022-11-15T06:11:52;10.50;99.90
2729;DHT22;1372;47.956;7.830;2022-11-15T06:14:26;10.50;99.90
2729;DHT22;1372;47.956;7.830;2022-11-15T06:17:00;10.60;99.90
2729;DHT22;1372;47.956;7.830;2022-11-15T06:19:38;10.60;99.90
2729;DHT22;1372;47.956;7.830;2022-11-15T06:22:10;10.60;99.90
2729;DHT22;1372;47.956;7.830;2022-11-15T06:24:44;10.50;99.90
2729;DHT22;1372;47.956;7.830;2022-11-15T06:27:16;10.50;99.90
2729;DHT22;1372;47.956;7.830;2022-11-15T06:29:48;10.40;99.90
2729;DHT22;1372;47.956;7.830;2022-11-15T06:32:20;10.40;99.90
2729;DHT22;1372;47.956;7.830;2022-11-15T06:34:53;10.40;99.90
2729;DHT22;1372;47.956;7.830;2022-11-15T06:37:26;10.40;99.90
2729;DHT22;1372;47.956;7.830;2022-11-15T06:40:00;10.30;99.90
2729;DHT22;1372;47.956;7.830;2022-11-15T06:42:35;10.30;99.90
2729;DHT22;1372;47.956;7.830;2022-11-15T06:45:08;10.40;99.90
2729;DHT22;1372;47.956;7.830;2022-11-15T06:47:45;10.30;99.90
2729;DHT22;1372;47.956;7.830;2022-11-15T06:50:17;10.40;99.90
2729;DHT22;1372;47.956;7.830;2022-11-15T06:52:49;10.30;99.90
2729;DHT22;1372;47.956;7.830;2022-11-15T06:55:24;10.40;99.90
2729;DHT22;1372;47.956;7.830;2022-11-15T06:57:57;10.40;99.90
2729;DHT22;1372;47.956;7.830;2022-11-15T07:00:29;10.40;99.90
2729;DHT22;1372;47.956;7.830;2022-11-15T07:03:02;10.40;99.90
2729;DHT22;1372;47.956;7.830;2022-11-15T07:05:36;10.40;99.90
2729;DHT22;1372;47.956;7.830;2022-11-15T07:08:09;10.50;99.90
2729;DHT22;1372;47.956;7.830;2022-11-15T07:10:43;10.50;99.90
2729;DHT22;1372;47.956;7.830;2022-11-15T07:13:16;10.50;99.90
2729;DHT22;1372;47.956;7.830;2022-11-15T07:15:49;10.40;99.90
2729;DHT22;1372;47.956;7.830;2022-11-15T07:18:21;10.40;99.90
2729;DHT22;1372;47.956;7.830;2022-11-15T07:20:53;10.40;99.90
2729;DHT22;1372;47.956;7.830;2022-11-15T07:23:26;10.40;99.90
2729;DHT22;1372;47.956;7.830;2022-11-15T07:26:01;10.60;99.90
2729;DHT22;1372;47.956;7.830;2022-11-15T07:28:35;10.60;99.90
2729;DHT22;1372;47.956;7.830;2022-11-15T07:31:08;10.60;99.90
2729;DHT22;1372;47.956;7.830;2022-11-15T07:33:42;10.60;99.90
2729;DHT22;1372;47.956;7.830;2022-11-15T07:36:13;10.60;99.90
2729;DHT22;1372;47.956;7.830;2022-11-15T07:38:48;10.70;99.90
2729;DHT22;1372;47.956;7.830;2022-11-15T07:41:21;10.70;99.90
2729;DHT22;1372;47.956;7.830;2022-11-15T07:43:56;10.70;99.90
2729;DHT22;1372;47.956;7.830;2022-11-15T07:46:28;10.70;99.90
2729;DHT22;1372;47.956;7.830;2022-11-15T07:49:01;10.80;99.90
2729;DHT22;1372;47.956;7.830;2022-11-15T07:51:33;10.80;99.90
2729;DHT22;1372;47.956;7.830;2022-11-15T07:54:05;10.90;99.90
2729;DHT22;1372;47.956;7.830;2022-11-15T07:56:40;10.90;99.90
2729;DHT22;1372;47.956;7.830;2022-11-15T07:59:13;11.00;99.90
2729;DHT22;1372;47.956;7.830;2022-11-15T08:01:45;11.00;99.90
2729;DHT22;1372;47.956;7.830;2022-11-15T08:04:19;11.00;99.90
2729;DHT22;1372;47.956;7.830;2022-11-15T08:06:52;11.10;99.90
2729;DHT22;1372;47.956;7.830;2022-11-15T08:09:24;11.10;99.90
2729;DHT22;1372;47.956;7.830;2022-11-15T08:11:59;11.20;99.90
2729;DHT22;1372;47.956;7.830;2022-11-15T08:14:31;11.30;99.90
2729;DHT22;1372;47.956;7.830;2022-11-15T08:17:04;11.30;99.90
2729;DHT22;1372;47.956;7.830;2022-11-15T08:19:37;11.30;99.90
2729;DHT22;1372;47.956;7.830;2022-11-15T08:22:10;11.40;99.90
2729;DHT22;1372;47.956;7.830;2022-11-15T08:24:44;11.40;99.90
2729;DHT22;1372;47.956;7.830;2022-11-15T08:27:18;11.50;99.90
2729;DHT22;1372;47.956;7.830;2022-11-15T08:29:51;11.50;99.90
2729;DHT22;1372;47.956;7.830;2022-11-15T08:32:27;11.60;99.90
2729;DHT22;1372;47.956;7.830;2022-11-15T08:35:00;11.60;99.90
2729;DHT22;1372;47.956;7.830;2022-11-15T08:37:32;11.60;99.90
2729;DHT22;1372;47.956;7.830;2022-11-15T08:40:06;11.70;99.90
2729;DHT22;1372;47.956;7.830;2022-11-15T08:42:42;11.70;99.90
2729;DHT22;1372;47.956;7.830;2022-11-15T08:45:21;11.80;99.90
2729;DHT22;1372;47.956;7.830;2022-11-15T08:47:54;11.80;99.90
2729;DHT22;1372;47.956;7.830;2022-11-15T08:50:30;11.80;99.90
2729;DHT22;1372;47.956;7.830;2022-11-15T08:53:05;11.90;99.90
2729;DHT22;1372;47.956;7.830;2022-11-15T08:55:40;11.90;99.90
2729;DHT22;1372;47.956;7.830;2022-11-15T08:58:18;11.90;99.90
2729;DHT22;1372;47.956;7.830;2022-11-15T09:00:54;12.00;99.90
2729;DHT22;1372;47.956;7.830;2022-11-15T09:03:28;12.00;99.90
2729;DHT22;1372;47.956;7.830;2022-11-15T09:06:02;12.10;99.90
2729;DHT22;1372;47.956;7.830;2022-11-15T09:08:35;12.10;99.90
2729;DHT22;1372;47.956;7.830;2022-11-15T09:11:15;12.10;99.90
2729;DHT22;1372;47.956;7.830;2022-11-15T09:13:51;12.20;99.90
2729;DHT22;1372;47.956;7.830;2022-11-15T09:16:24;12.20;99.90
2729;DHT22;1372;47.956;7.830;2022-11-15T09:18:57;12.30;99.90
2729;DHT22;1372;47.956;7.830;2022-11-15T09:21:31;12.30;99.90
2729;DHT22;1372;47.956;7.830;2022-11-15T09:24:07;12.30;99.90
2729;DHT22;1372;47.956;7.830;2022-11-15T09:26:40;12.30;99.90
2729;DHT22;1372;47.956;7.830;2022-11-15T09:29:15;12.30;99.90
2729;DHT22;1372;47.956;7.830;2022-11-15T09:31:48;12.30;99.90
2729;DHT22;1372;47.956;7.830;2022-11-15T09:34:21;12.30;99.90
2729;DHT22;1372;47.956;7.830;2022-11-15T09:36:53;12.20;99.90
2729;DHT22;1372;47.956;7.830;2022-11-15T09:39:26;12.20;99.90
2729;DHT22;1372;47.956;7.830;2022-11-15T09:42:20;12.30;99.90
2729;DHT22;1372;47.956;7.830;2022-11-15T09:45:16;12.30;99.90
2729;DHT22;1372;47.956;7.830;2022-11-15T09:48:24;12.30;99.90
2729;DHT22;1372;47.956;7.830;2022-11-15T09:51:06;12.40;99.90
2729;DHT22;1372;47.956;7.830;2022-11-15T09:53:48;12.30;99.90
2729;DHT22;1372;47.956;7.830;2022-11-15T09:56:44;12.40;99.90
2729;DHT22;1372;47.956;7.830;2022-11-15T09:59:44;12.40;99.90
2729;DHT22;1372;47.956;7.830;2022-11-15T10:02:36;12.30;99.90
2729;DHT22;1372;47.956;7.830;2022-11-15T10:05:20;12.40;99.90
2729;DHT22;1372;47.956;7.830;2022-11-15T10:08:01;12.40;99.90
2729;DHT22;1372;47.956;7.830;2022-11-15T10:10:40;12.40;99.90
2729;DHT22;1372;47.956;7.830;2022-11-15T10:13:16;12.40;99.90
2729;DHT22;1372;47.956;7.830;2022-11-15T10:15:51;12.40;99.90
2729;DHT22;1372;47.956;7.830;2022-11-15T10:18:30;12.50;99.90
2729;DHT22;1372;47.956;7.830;2022-11-15T10:21:15;12.50;99.90
2729;DHT22;1372;47.956;7.830;2022-11-15T10:23:49;12.50;99.90
2729;DHT22;1372;47.956;7.830;2022-11-15T10:26:24;12.60;99.90
2729;DHT22;1372;47.956;7.830;2022-11-15T10:28:57;12.60;99.90
2729;DHT22;1372;47.956;7.830;2022-11-15T10:31:30;12.60;99.90
2729;DHT22;1372;47.956;7.830;2022-11-15T10:34:13;12.60;99.90
2729;DHT22;1372;47.956;7.830;2022-11-15T10:36:54;12.60;99.90
2729;DHT22;1372;47.956;7.830;2022-11-15T10:39:28;12.60;99.90
2729;DHT22;1372;47.956;7.830;2022-11-15T10:42:17;12.70;99.90
2729;DHT22;1372;47.956;7.830;2022-11-15T10:44:50;12.70;99.90
2729;DHT22;1372;47.956;7.830;2022-11-15T10:47:25;12.70;99.90
2729;DHT22;1372;47.956;7.830;2022-11-15T10:50:29;12.80;99.90
2729;DHT22;1372;47.956;7.830;2022-11-15T10:53:03;12.80;99.90
2729;DHT22;1372;47.956;7.830;2022-11-15T10:55:45;12.80;99.90
2729;DHT22;1372;47.956;7.830;2022-11-15T10:58:32;12.80;99.90
2729;DHT22;1372;47.956;7.830;2022-11-15T11:01:14;12.80;99.90
2729;DHT22;1372;47.956;7.830;2022-11-15T11:03:59;12.80;99.90
2729;DHT22;1372;47.956;7.830;2022-11-15T11:06:47;12.90;99.90
2729;DHT22;1372;47.956;7.830;2022-11-15T11:09:32;12.90;99.90
2729;DHT22;1372;47.956;7.830;2022-11-15T11:12:10;12.90;99.90
2729;DHT22;1372;47.956;7.830;2022-11-15T11:14:44;12.90;99.90
2729;DHT22;1372;47.956;7.830;2022-11-15T11:17:21;12.90;99.90
2729;DHT22;1372;47.956;7.830;2022-11-15T11:20:05;13.00;99.90
2729;DHT22;1372;47.956;7.830;2022-11-15T11:22:59;13.00;99.90
2729;DHT22;1372;47.956;7.830;2022-11-15T11:25:39;13.00;99.90
2729;DHT22;1372;47.956;7.830;2022-11-15T11:28:37;13.00;99.90
2729;DHT22;1372;47.956;7.830;2022-11-15T11:31:21;13.10;99.90
2729;DHT22;1372;47.956;7.830;2022-11-15T11:34:04;13.10;99.90
2729;DHT22;1372;47.956;7.830;2022-11-15T11:36:50;13.10;99.90
2729;DHT22;1372;47.956;7.830;2022-11-15T11:39:39;13.10;99.90
2729;DHT22;1372;47.956;7.830;2022-11-15T11:42:23;13.20;99.90
2729;DHT22;1372;47.956;7.830;2022-11-15T11:45:10;13.20;99.90
2729;DHT22;1372;47.956;7.830;2022-11-15T11:47:50;13.30;99.90
2729;DHT22;1372;47.956;7.830;2022-11-15T11:50:27;13.30;99.90
2729;DHT22;1372;47.956;7.830;2022-11-15T11:53:03;13.30;99.90
2729;DHT22;1372;47.956;7.830;2022-11-15T11:55:44;13.40;99.90
2729;DHT22;1372;47.956;7.830;2022-11-15T11:58:23;13.40;99.90
2729;DHT22;1372;47.956;7.830;2022-11-15T12:01:17;13.40;99.90
2729;DHT22;1372;47.956;7.830;2022-11-15T12:03:57;13.50;99.90
2729;DHT22;1372;47.956;7.830;2022-11-15T12:06:37;13.50;99.90
2729;DHT22;1372;47.956;7.830;2022-11-15T12:09:16;13.50;99.90
2729;DHT22;1372;47.956;7.830;2022-11-15T12:11:58;13.50;99.90
2729;DHT22;1372;47.956;7.830;2022-11-15T12:14:40;13.50;99.90
2729;DHT22;1372;47.956;7.830;2022-11-15T12:17:20;13.50;99.90
2729;DHT22;1372;47.956;7.830;2022-11-15T12:19:57;13.50;99.90
2729;DHT22;1372;47.956;7.830;2022-11-15T12:22:40;13.50;99.90
2729;DHT22;1372;47.956;7.830;2022-11-15T12:25:18;13.60;99.90
2729;DHT22;1372;47.956;7.830;2022-11-15T12:27:58;13.60;99.90
2729;DHT22;1372;47.956;7.830;2022-11-15T12:30:43;13.60;99.90
2729;DHT22;1372;47.956;7.830;2022-11-15T12:33:31;13.60;99.90
2729;DHT22;1372;47.956;7.830;2022-11-15T12:36:10;13.60;99.90
2729;DHT22;1372;47.956;7.830;2022-11-15T12:38:55;13.60;99.90
2729;DHT22;1372;47.956;7.830;2022-11-15T12:41:30;13.60;99.90
2729;DHT22;1372;47.956;7.830;2022-11-15T12:44:11;13.70;99.90
2729;DHT22;1372;47.956;7.830;2022-11-15T12:47:03;13.70;99.90
2729;DHT22;1372;47.956;7.830;2022-11-15T12:49:51;13.70;99.90
2729;DHT22;1372;47.956;7.830;2022-11-15T12:52:24;13.60;99.90
2729;DHT22;1372;47.956;7.830;2022-11-15T12:55:02;13.60;99.90
2729;DHT22;1372;47.956;7.830;2022-11-15T12:58:26;13.60;99.90
2729;DHT22;1372;47.956;7.830;2022-11-15T13:01:01;13.50;99.90
2729;DHT22;1372;47.956;7.830;2022-11-15T13:03:34;13.50;99.90
2729;DHT22;1372;47.956;7.830;2022-11-15T13:06:09;13.50;99.90
2729;DHT22;1372;47.956;7.830;2022-11-15T13:12:52;13.50;99.90
2729;DHT22;1372;47.956;7.830;2022-11-15T13:15:37;13.40;99.90
2729;DHT22;1372;47.956;7.830;2022-11-15T13:18:31;13.40;99.90
2729;DHT22;1372;47.956;7.830;2022-11-15T13:24:13;13.40;99.90
2729;DHT22;1372;47.956;7.830;2022-11-15T13:26:47;13.40;99.90
2729;DHT22;1372;47.956;7.830;2022-11-15T13:29:21;13.40;99.90
2729;DHT22;1372;47.956;7.830;2022-11-15T13:31:54;13.30;99.90
2729;DHT22;1372;47.956;7.830;2022-11-15T13:34:30;13.30;99.90
2729;DHT22;1372;47.956;7.830;2022-11-15T13:37:30;13.30;99.90
2729;DHT22;1372;47.956;7.830;2022-11-15T13:40:20;13.20;99.90
2729;DHT22;1372;47.956;7.830;2022-11-15T13:42:57;13.20;99.90
2729;DHT22;1372;47.956;7.830;2022-11-15T13:45:31;13.20;99.90
2729;DHT22;1372;47.956;7.830;2022-11-15T13:48:04;13.20;99.90
2729;DHT22;1372;47.956;7.830;2022-11-15T13:50:40;13.20;99.90
2729;DHT22;1372;47.956;7.830;2022-11-15T13:53:12;13.20;99.90
2729;DHT22;1372;47.956;7.830;2022-11-15T13:55:44;13.20;99.90
2729;DHT22;1372;47.956;7.830;2022-11-15T13:58:17;13.20;99.90
2729;DHT22;1372;47.956;7.830;2022-11-15T14:00:59;13.20;99.90
2729;DHT22;1372;47.956;7.830;2022-11-15T14:03:42;13.20;99.90
2729;DHT22;1372;47.956;7.830;2022-11-15T14:06:22;13.30;99.90
2729;DHT22;1372;47.956;7.830;2022-11-15T14:12:26;13.30;99.90
2729;DHT22;1372;47.956;7.830;2022-11-15T14:15:18;13.30;99.90
2729;DHT22;1372;47.956;7.830;2022-11-15T14:17:55;13.30;99.90
2729;DHT22;1372;47.956;7.830;2022-11-15T14:20:30;13.30;99.90
2729;DHT22;1372;47.956;7.830;2022-11-15T14:23:18;13.30;99.90
2729;DHT22;1372;47.956;7.830;2022-11-15T14:25:53;13.40;99.90
2729;DHT22;1372;47.956;7.830;2022-11-15T14:28:31;13.40;99.90
2729;DHT22;1372;47.956;7.830;2022-11-15T14:31:11;13.40;99.90
2729;DHT22;1372;47.956;7.830;2022-11-15T14:33:46;13.40;99.90
2729;DHT22;1372;47.956;7.830;2022-11-15T14:36:20;13.40;99.90
2729;DHT22;1372;47.956;7.830;2022-11-15T14:38:55;13.40;99.90
2729;DHT22;1372;47.956;7.830;2022-11-15T14:41:27;13.40;99.90
2729;DHT22;1372;47.956;7.830;2022-11-15T14:44:02;13.40;99.90
2729;DHT22;1372;47.956;7.830;2022-11-15T14:46:36;13.40;99.90
2729;DHT22;1372;47.956;7.830;2022-11-15T14:49:08;13.40;99.90
2729;DHT22;1372;47.956;7.830;2022-11-15T14:51:45;13.30;99.90
2729;DHT22;1372;47.956;7.830;2022-11-15T14:54:20;13.30;99.90
2729;DHT22;1372;47.956;7.830;2022-11-15T14:56:52;13.30;99.90
2729;DHT22;1372;47.956;7.830;2022-11-15T14:59:25;13.30;99.90
2729;DHT22;1372;47.956;7.830;2022-11-15T15:02:00;13.30;99.90
2729;DHT22;1372;47.956;7.830;2022-11-15T15:04:32;13.20;99.90
2729;DHT22;1372;47.956;7.830;2022-11-15T15:07:05;13.20;99.90
2729;DHT22;1372;47.956;7.830;2022-11-15T15:09:42;13.10;99.90
2729;DHT22;1372;47.956;7.830;2022-11-15T15:12:19;13.20;99.90
2729;DHT22;1372;47.956;7.830;2022-11-15T15:14:53;13.20;99.90
2729;DHT22;1372;47.956;7.830;2022-11-15T15:17:26;13.10;99.90
2729;DHT22;1372;47.956;7.830;2022-11-15T15:19:59;13.10;99.90
2729;DHT22;1372;47.956;7.830;2022-11-15T15:22:31;13.00;99.90
2729;DHT22;1372;47.956;7.830;2022-11-15T15:28:06;13.00;99.90
2729;DHT22;1372;47.956;7.830;2022-11-15T15:30:37;12.90;99.90
2729;DHT22;1372;47.956;7.830;2022-11-15T15:33:07;12.90;99.90
2729;DHT22;1372;47.956;7.830;2022-11-15T15:35:38;12.80;99.90
2729;DHT22;1372;47.956;7.830;2022-11-15T15:38:12;12.70;99.90
2729;DHT22;1372;47.956;7.830;2022-11-15T15:40:46;12.70;99.90
2729;DHT22;1372;47.956;7.830;2022-11-15T15:43:18;12.70;99.90
2729;DHT22;1372;47.956;7.830;2022-11-15T15:45:50;12.70;99.90
2729;DHT22;1372;47.956;7.830;2022-11-15T15:48:20;12.60;99.90
2729;DHT22;1372;47.956;7.830;2022-11-15T15:50:50;12.60;99.90
2729;DHT22;1372;47.956;7.830;2022-11-15T15:53:20;12.50;99.90
2729;DHT22;1372;47.956;7.830;2022-11-15T15:55:52;12.60;99.90
2729;DHT22;1372;47.956;7.830;2022-11-15T15:58:22;12.50;99.90
2729;DHT22;1372;47.956;7.830;2022-11-15T16:00:52;12.50;99.90
2729;DHT22;1372;47.956;7.830;2022-11-15T16:03:22;12.60;99.90
2729;DHT22;1372;47.956;7.830;2022-11-15T16:05:52;12.50;99.90
2729;DHT22;1372;47.956;7.830;2022-11-15T16:08:24;12.50;99.90
2729;DHT22;1372;47.956;7.830;2022-11-15T16:11:10;12.40;99.90
2729;DHT22;1372;47.956;7.830;2022-11-15T16:13:43;12.30;99.90
2729;DHT22;1372;47.956;7.830;2022-11-15T16:16:14;12.30;99.90
2729;DHT22;1372;47.956;7.830;2022-11-15T16:18:44;12.30;99.90
2729;DHT22;1372;47.956;7.830;2022-11-15T16:21:17;12.30;99.90
2729;DHT22;1372;47.956;7.830;2022-11-15T16:23:47;12.30;99.90
2729;DHT22;1372;47.956;7.830;2022-11-15T16:26:21;12.30;99.90
2729;DHT22;1372;47.956;7.830;2022-11-15T16:28:54;12.20;99.90
2729;DHT22;1372;47.956;7.830;2022-11-15T16:31:27;12.20;99.90
2729;DHT22;1372;47.956;7.830;2022-11-15T16:34:00;12.20;99.90
2729;DHT22;1372;47.956;7.830;2022-11-15T16:36:33;12.10;99.90
2729;DHT22;1372;47.956;7.830;2022-11-15T16:39:08;12.20;99.90
2729;DHT22;1372;47.956;7.830;2022-11-15T16:41:48;12.20;99.90
2729;DHT22;1372;47.956;7.830;2022-11-15T16:44:21;12.10;99.90
2729;DHT22;1372;47.956;7.830;2022-11-15T16:46:53;12.20;99.90
2729;DHT22;1372;47.956;7.830;2022-11-15T16:49:25;12.20;99.90
2729;DHT22;1372;47.956;7.830;2022-11-15T16:51:59;12.20;99.90
2729;DHT22;1372;47.956;7.830;2022-11-15T16:54:34;12.10;99.90
2729;DHT22;1372;47.956;7.830;2022-11-15T16:57:10;12.10;99.90
2729;DHT22;1372;47.956;7.830;2022-11-15T16:59:42;12.10;99.90
2729;DHT22;1372;47.956;7.830;2022-11-15T17:02:18;12.00;99.90
2729;DHT22;1372;47.956;7.830;2022-11-15T17:04:51;12.00;99.90
2729;DHT22;1372;47.956;7.830;2022-11-15T17:07:24;12.00;99.90
2729;DHT22;1372;47.956;7.830;2022-11-15T17:09:56;12.10;99.90
2729;DHT22;1372;47.956;7.830;2022-11-15T17:12:34;12.00;99.90
2729;DHT22;1372;47.956;7.830;2022-11-15T17:15:11;11.90;99.90
2729;DHT22;1372;47.956;7.830;2022-11-15T17:17:45;11.90;99.90
2729;DHT22;1372;47.956;7.830;2022-11-15T17:20:24;11.90;99.90